createdAt,value
2023-05-04T00:00:51.423Z,10.40
2023-05-04T00:03:18.640Z,10.30
2023-05-04T00:05:46.158Z,10.30
2023-05-04T00:08:13.318Z,10.20
2023-05-04T00:10:40.327Z,10.20
2023-05-04T00:13:07.708Z,10.30
2023-05-04T00:15:34.916Z,10.30
2023-05-04T00:18:02.517Z,10.20
2023-05-04T00:20:29.644Z,10.10
2023-05-04T00:22:56.722Z,10.10
2023-05-04T00:25:23.740Z,10.10
2023-05-04T00:27:50.933Z,10.10
2023-05-04T00:30:18.090Z,10.00
2023-05-04T00:32:45.371Z,9.90
2023-05-04T00:35:12.879Z,9.90
2023-05-04T00:37:40.150Z,9.80
2023-05-04T00:40:08.218Z,9.80
2023-05-04T00:42:35.574Z,9.70
2023-05-04T00:45:02.951Z,9.60
2023-05-04T00:47:30.264Z,9.70
2023-05-04T00:49:57.649Z,9.70
2023-05-04T00:52:24.954Z,9.70
2023-05-04T00:54:53.147Z,9.70
2023-05-04T00:57:21.113Z,9.70
2023-05-04T00:59:48.363Z,9.70
2023-05-04T01:02:15.823Z,9.70
2023-05-04T01:04:43.028Z,9.70
2023-05-04T01:07:34.686Z,9.70
2023-05-04T01:10:12.165Z,9.70
2023-05-04T01:12:48.094Z,9.60
2023-05-04T01:15:15.991Z,9.40
2023-05-04T01:17:43.085Z,9.30
2023-05-04T01:20:10.525Z,9.20
2023-05-04T01:22:38.797Z,9.10
2023-05-04T01:25:06.866Z,9.00
2023-05-04T01:27:48.114Z,8.90
2023-05-04T01:30:26.143Z,8.80
2023-05-04T01:32:53.665Z,8.80
2023-05-04T01:35:20.940Z,8.80
2023-05-04T01:37:47.989Z,8.70
2023-05-04T01:40:15.801Z,8.70
2023-05-04T01:42:43.047Z,8.70
2023-05-04T01:45:10.762Z,8.70
2023-05-04T01:47:38.101Z,8.80
2023-05-04T01:50:06.200Z,8.80
2023-05-04T01:52:33.575Z,8.70
2023-05-04T01:55:00.864Z,9.00
2023-05-04T01:57:28.221Z,9.00
2023-05-04T01:59:55.617Z,9.10
2023-05-04T02:02:23.438Z,9.20
2023-05-04T02:04:50.888Z,9.30
2023-05-04T02:07:18.338Z,9.40
2023-05-04T02:09:45.817Z,9.50
2023-05-04T02:12:12.928Z,9.30
2023-05-04T02:14:40.054Z,9.20
2023-05-04T02:17:07.576Z,9.20
2023-05-04T02:19:34.632Z,9.30
2023-05-04T02:22:01.882Z,9.30
2023-05-04T02:24:29.066Z,9.40
2023-05-04T02:26:56.271Z,9.50
2023-05-04T02:29:23.503Z,9.50
2023-05-04T02:31:50.714Z,9.40
2023-05-04T02:34:17.859Z,9.50
2023-05-04T02:36:44.940Z,9.60
2023-05-04T02:39:12.131Z,9.60
2023-05-04T02:41:39.204Z,9.60
2023-05-04T02:44:06.294Z,9.60
2023-05-04T02:46:33.513Z,9.50
2023-05-04T02:49:00.632Z,9.60
2023-05-04T02:51:27.785Z,9.60
2023-05-04T02:53:55.034Z,9.70
2023-05-04T02:56:22.251Z,9.40
2023-05-04T02:58:49.646Z,9.30
2023-05-04T03:01:16.922Z,9.40
2023-05-04T03:03:44.249Z,9.50
2023-05-04T03:06:11.748Z,9.50
2023-05-04T03:08:38.964Z,9.50
2023-05-04T03:11:06.280Z,9.50
2023-05-04T03:13:33.532Z,9.60
2023-05-04T03:16:00.651Z,9.50
2023-05-04T03:18:27.729Z,9.40
2023-05-04T03:20:54.899Z,9.20
2023-05-04T03:23:22.134Z,9.00
2023-05-04T03:25:49.543Z,8.90
2023-05-04T03:28:16.774Z,8.90
2023-05-04T03:30:43.918Z,8.80
2023-05-04T03:33:11.022Z,8.90
2023-05-04T03:35:38.220Z,8.90
2023-05-04T03:38:07.650Z,8.90
2023-05-04T03:40:34.768Z,8.80
2023-05-04T03:43:02.064Z,8.70
2023-05-04T03:45:29.333Z,8.60
2023-05-04T03:47:56.656Z,8.60
2023-05-04T03:50:24.153Z,8.50
2023-05-04T03:52:51.878Z,8.50
2023-05-04T03:55:19.331Z,8.40
2023-05-04T03:57:47.019Z,8.40
2023-05-04T04:00:14.709Z,8.30
2023-05-04T04:02:42.190Z,8.30
2023-05-04T04:05:09.639Z,8.30
2023-05-04T04:07:36.863Z,8.20
2023-05-04T04:10:04.904Z,8.30
2023-05-04T04:12:32.313Z,8.20
2023-05-04T04:14:59.613Z,8.20
2023-05-04T04:17:26.811Z,8.30
2023-05-04T04:19:53.930Z,8.30
2023-05-04T04:22:21.058Z,8.30
2023-05-04T04:24:48.297Z,8.30
2023-05-04T04:27:15.480Z,8.20
2023-05-04T04:29:43.039Z,8.20
2023-05-04T04:32:10.605Z,8.20
2023-05-04T04:34:38.002Z,8.20
2023-05-04T04:37:05.227Z,8.20
2023-05-04T04:39:32.942Z,8.20
2023-05-04T04:42:00.141Z,8.20
2023-05-04T04:44:27.551Z,8.20
2023-05-04T04:46:54.916Z,8.40
2023-05-04T04:49:22.606Z,8.40
2023-05-04T04:51:50.414Z,8.40
2023-05-04T04:54:17.613Z,8.40
2023-05-04T04:56:46.196Z,8.40
2023-05-04T04:59:14.091Z,8.40
2023-05-04T05:01:44.178Z,8.40
2023-05-04T05:04:11.660Z,8.40
2023-05-04T05:06:38.881Z,8.40
2023-05-04T05:09:06.285Z,8.40
2023-05-04T05:11:34.096Z,8.50
2023-05-04T05:14:01.471Z,8.60
2023-05-04T05:16:28.857Z,8.70
2023-05-04T05:18:56.054Z,8.80
2023-05-04T05:21:23.207Z,9.00
2023-05-04T05:23:50.362Z,9.10
2023-05-04T05:26:17.786Z,9.30
2023-05-04T05:28:45.061Z,9.50
2023-05-04T05:31:12.781Z,9.60
2023-05-04T05:33:40.878Z,9.80
2023-05-04T05:36:08.201Z,9.80
2023-05-04T05:38:35.470Z,9.90
2023-05-04T05:41:02.640Z,10.00
2023-05-04T05:43:30.108Z,10.00
2023-05-04T05:45:57.556Z,10.10
2023-05-04T05:48:24.766Z,10.20
2023-05-04T05:50:51.996Z,10.30
2023-05-04T05:53:19.339Z,10.50
2023-05-04T05:55:47.296Z,10.60
2023-05-04T05:58:14.469Z,10.60
2023-05-04T06:00:41.527Z,10.70
2023-05-04T06:03:08.753Z,10.70
2023-05-04T06:05:35.873Z,10.70
2023-05-04T06:08:04.358Z,10.80
2023-05-04T06:10:31.810Z,10.90
2023-05-04T06:12:59.264Z,11.00
2023-05-04T06:15:26.562Z,11.10
2023-05-04T06:17:53.694Z,11.10
2023-05-04T06:20:20.982Z,11.10
2023-05-04T06:22:48.462Z,11.20
2023-05-04T06:25:15.512Z,11.30
2023-05-04T06:27:42.902Z,11.30
2023-05-04T06:30:10.586Z,11.30
2023-05-04T06:32:37.842Z,11.40
2023-05-04T06:35:06.336Z,11.60
2023-05-04T06:37:33.409Z,11.70
2023-05-04T06:40:00.622Z,11.90
2023-05-04T06:42:31.697Z,12.10
2023-05-04T06:44:59.027Z,12.20
2023-05-04T06:47:26.265Z,12.40
2023-05-04T06:49:53.388Z,12.50
2023-05-04T06:52:20.573Z,12.70
2023-05-04T06:54:48.090Z,12.80
2023-05-04T06:57:15.179Z,12.90
2023-05-04T06:59:42.170Z,13.00
2023-05-04T07:02:09.355Z,13.10
2023-05-04T07:04:36.445Z,13.30
2023-05-04T07:07:03.701Z,13.40
2023-05-04T07:09:30.825Z,13.60
2023-05-04T07:11:57.921Z,13.80
2023-05-04T07:14:25.274Z,13.90
2023-05-04T07:16:52.624Z,14.10
2023-05-04T07:19:19.854Z,14.20
2023-05-04T07:21:47.604Z,14.20
2023-05-04T07:24:14.870Z,14.30
2023-05-04T07:26:41.993Z,14.50
2023-05-04T07:29:09.740Z,14.50
2023-05-04T07:31:38.435Z,14.60
2023-05-04T07:34:05.669Z,14.60
2023-05-04T07:36:35.633Z,14.80
2023-05-04T07:39:02.905Z,15.00
2023-05-04T07:41:29.909Z,15.10
2023-05-04T07:43:57.200Z,15.30
2023-05-04T07:46:24.388Z,15.30
2023-05-04T07:48:51.631Z,15.40
2023-05-04T07:51:18.655Z,15.60
2023-05-04T07:53:45.747Z,15.70
2023-05-04T07:56:13.844Z,16.00
2023-05-04T07:58:41.481Z,16.20
2023-05-04T08:01:08.463Z,16.30
2023-05-04T08:03:35.470Z,16.30
2023-05-04T08:06:02.444Z,16.50
2023-05-04T08:08:29.552Z,16.60
2023-05-04T08:11:07.848Z,16.80
2023-05-04T08:13:40.313Z,17.00
2023-05-04T08:16:09.278Z,17.00
2023-05-04T08:18:37.169Z,17.30
2023-05-04T08:21:04.550Z,17.50
2023-05-04T08:23:33.553Z,17.70
2023-05-04T08:26:04.174Z,17.90
2023-05-04T08:28:36.849Z,17.90
2023-05-04T08:31:04.100Z,18.10
2023-05-04T08:33:32.033Z,18.30
2023-05-04T08:35:59.566Z,18.50
2023-05-04T08:38:26.588Z,18.70
2023-05-04T08:40:54.682Z,18.80
2023-05-04T08:43:21.638Z,18.80
2023-05-04T08:45:49.744Z,19.00
2023-05-04T08:48:16.854Z,19.10
2023-05-04T08:50:44.345Z,19.00
2023-05-04T08:53:13.836Z,19.00
2023-05-04T08:55:43.954Z,19.00
2023-05-04T08:58:13.092Z,19.20
2023-05-04T09:00:43.511Z,19.20
2023-05-04T09:03:11.297Z,19.20
2023-05-04T09:05:38.878Z,19.50
2023-05-04T09:08:06.885Z,19.70
2023-05-04T09:10:34.754Z,20.00
2023-05-04T09:13:01.998Z,20.30
2023-05-04T09:15:31.709Z,20.50
2023-05-04T09:18:03.270Z,20.60
2023-05-04T09:20:31.060Z,20.50
2023-05-04T09:23:04.280Z,20.50
2023-05-04T09:25:31.750Z,20.90
2023-05-04T09:27:58.986Z,21.30
2023-05-04T09:30:26.245Z,21.80
2023-05-04T09:32:53.880Z,22.00
2023-05-04T09:35:33.730Z,21.70
2023-05-04T09:38:01.522Z,21.80
2023-05-04T09:40:33.258Z,22.20
2023-05-04T09:43:01.203Z,22.60
2023-05-04T09:45:42.840Z,22.90
2023-05-04T09:48:17.796Z,23.00
2023-05-04T09:50:49.889Z,22.90
2023-05-04T09:53:20.035Z,23.10
2023-05-04T09:55:51.523Z,23.60
2023-05-04T09:58:19.806Z,23.60
2023-05-04T10:00:46.885Z,23.70
2023-05-04T10:03:14.726Z,23.90
2023-05-04T10:05:42.092Z,23.90
2023-05-04T10:08:09.337Z,23.90
2023-05-04T10:10:39.484Z,24.00
2023-05-04T10:13:06.906Z,24.00
2023-05-04T10:15:35.417Z,24.10
2023-05-04T10:18:29.361Z,24.10
2023-05-04T10:21:28.931Z,24.40
2023-05-04T10:24:33.144Z,24.60
2023-05-04T10:27:12.075Z,25.00
2023-05-04T10:29:39.823Z,25.40
2023-05-04T10:32:17.995Z,25.90
2023-05-04T10:34:45.413Z,26.00
2023-05-04T10:37:20.259Z,26.20
2023-05-04T10:39:54.453Z,26.50
2023-05-04T10:42:21.962Z,26.50
2023-05-04T10:44:56.505Z,26.90
2023-05-04T10:47:34.164Z,27.10
2023-05-04T10:50:08.799Z,26.90
2023-05-04T10:52:49.935Z,26.70
2023-05-04T10:55:18.349Z,26.80
2023-05-04T10:57:49.878Z,26.60
2023-05-04T11:00:18.224Z,26.50
2023-05-04T11:02:47.314Z,26.60
2023-05-04T11:05:19.592Z,27.00
2023-05-04T11:07:50.738Z,26.80
2023-05-04T11:10:35.944Z,26.30
2023-05-04T11:13:05.920Z,26.00
2023-05-04T11:15:44.856Z,26.20
2023-05-04T11:18:12.012Z,26.50
2023-05-04T11:20:39.015Z,26.20
2023-05-04T11:23:10.152Z,25.70
2023-05-04T11:25:37.768Z,25.40
2023-05-04T11:28:05.039Z,25.40
2023-05-04T11:30:35.778Z,25.40
2023-05-04T11:33:05.160Z,25.90
2023-05-04T11:35:33.149Z,26.40
2023-05-04T11:38:00.131Z,26.60
2023-05-04T11:40:27.866Z,26.90
2023-05-04T11:42:57.283Z,27.00
2023-05-04T11:45:29.927Z,27.30
2023-05-04T11:47:58.688Z,27.60
2023-05-04T11:50:27.144Z,27.90
2023-05-04T11:53:13.690Z,28.20
2023-05-04T11:55:42.087Z,27.70
2023-05-04T11:58:11.812Z,27.60
2023-05-04T12:00:43.892Z,27.50
2023-05-04T12:03:13.340Z,27.50
2023-05-04T12:05:48.495Z,27.10
2023-05-04T12:08:32.858Z,26.30
2023-05-04T12:11:10.166Z,26.60
2023-05-04T12:13:37.536Z,26.80
2023-05-04T12:16:20.999Z,27.40
2023-05-04T12:18:48.362Z,27.70
2023-05-04T12:21:20.354Z,28.30
2023-05-04T12:23:47.834Z,28.90
2023-05-04T12:26:18.033Z,29.30
2023-05-04T12:28:46.628Z,29.20
2023-05-04T12:31:13.690Z,29.20
2023-05-04T12:33:40.918Z,29.00
2023-05-04T12:36:08.302Z,28.90
2023-05-04T12:38:35.671Z,29.20
2023-05-04T12:41:04.625Z,29.40
2023-05-04T12:43:33.147Z,29.20
2023-05-04T12:46:00.560Z,29.10
2023-05-04T12:48:29.877Z,28.90
2023-05-04T12:50:56.823Z,29.30
2023-05-04T12:53:27.903Z,29.90
2023-05-04T12:55:55.840Z,30.20
2023-05-04T12:58:22.878Z,30.70
2023-05-04T13:00:49.836Z,30.70
2023-05-04T13:03:18.042Z,30.90
2023-05-04T13:05:49.870Z,31.00
2023-05-04T13:08:18.397Z,30.30
2023-05-04T13:10:46.394Z,29.60
2023-05-04T13:13:16.362Z,28.60
2023-05-04T13:15:44.656Z,28.80
2023-05-04T13:18:13.141Z,29.20
2023-05-04T13:20:40.847Z,29.30
2023-05-04T13:23:08.267Z,29.10
2023-05-04T13:25:35.272Z,28.80
2023-05-04T13:28:02.321Z,28.90
2023-05-04T13:30:30.189Z,28.40
2023-05-04T13:32:57.308Z,28.20
2023-05-04T13:35:24.570Z,28.60
2023-05-04T13:37:51.620Z,28.40
2023-05-04T13:40:18.795Z,28.60
2023-05-04T13:42:45.979Z,28.40
2023-05-04T13:45:13.225Z,28.40
2023-05-04T13:47:40.776Z,29.00
2023-05-04T13:50:08.734Z,28.90
2023-05-04T13:52:36.902Z,29.10
2023-05-04T13:55:04.826Z,29.40
2023-05-04T13:57:32.256Z,29.40
2023-05-04T14:00:07.247Z,29.50
2023-05-04T14:02:35.553Z,30.00
2023-05-04T14:05:04.183Z,30.60
2023-05-04T14:07:31.600Z,30.30
2023-05-04T14:09:59.576Z,30.20
2023-05-04T14:12:27.483Z,30.00
2023-05-04T14:14:54.593Z,29.70
2023-05-04T14:17:21.733Z,29.00
2023-05-04T14:19:48.743Z,28.50
2023-05-04T14:22:15.974Z,28.30
2023-05-04T14:24:43.164Z,27.80
2023-05-04T14:27:10.099Z,27.60
2023-05-04T14:29:37.048Z,27.30
2023-05-04T14:32:04.443Z,27.30
2023-05-04T14:34:32.601Z,27.20
2023-05-04T14:36:59.752Z,27.60
2023-05-04T14:39:26.766Z,28.20
2023-05-04T14:41:54.127Z,28.70
2023-05-04T14:44:22.686Z,28.90
2023-05-04T14:46:50.069Z,28.60
2023-05-04T14:49:35.053Z,28.40
2023-05-04T14:52:03.993Z,28.30
2023-05-04T14:54:31.124Z,28.50
2023-05-04T14:56:59.064Z,28.70
2023-05-04T14:59:26.636Z,28.90
2023-05-04T15:01:55.390Z,29.10
2023-05-04T15:04:22.867Z,29.00
2023-05-04T15:06:50.133Z,29.30
2023-05-04T15:09:17.237Z,29.70
2023-05-04T15:11:44.226Z,30.30
2023-05-04T15:14:11.353Z,30.50
2023-05-04T15:16:38.737Z,30.20
2023-05-04T15:19:06.373Z,29.50
2023-05-04T15:21:33.832Z,28.70
2023-05-04T15:24:01.164Z,28.50
2023-05-04T15:26:29.471Z,28.70
2023-05-04T15:28:57.147Z,28.70
2023-05-04T15:31:24.156Z,28.70
2023-05-04T15:33:51.290Z,28.90
2023-05-04T15:36:18.326Z,28.90
2023-05-04T15:38:45.384Z,29.00
2023-05-04T15:41:14.297Z,29.10
2023-05-04T15:43:41.430Z,29.50
2023-05-04T15:46:08.460Z,29.70
2023-05-04T15:48:35.459Z,29.60
2023-05-04T15:51:02.441Z,29.80
2023-05-04T15:53:29.790Z,29.70
2023-05-04T15:55:56.855Z,29.30
2023-05-04T15:58:23.856Z,28.80
2023-05-04T16:00:51.290Z,28.50
2023-05-04T16:03:18.538Z,28.40
2023-05-04T16:05:46.007Z,28.30
2023-05-04T16:08:13.054Z,28.00
2023-05-04T16:10:40.040Z,28.00
2023-05-04T16:13:09.144Z,28.20
2023-05-04T16:15:37.635Z,28.50
2023-05-04T16:18:05.073Z,28.40
2023-05-04T16:20:32.148Z,28.40
2023-05-04T16:22:59.231Z,28.30
2023-05-04T16:25:26.223Z,28.30
2023-05-04T16:27:53.503Z,28.20
2023-05-04T16:30:21.642Z,28.00
2023-05-04T16:32:48.699Z,27.60
2023-05-04T16:35:15.843Z,27.50
2023-05-04T16:37:43.491Z,27.60
2023-05-04T16:40:15.516Z,27.60
2023-05-04T16:42:43.540Z,27.60
2023-05-04T16:45:13.388Z,27.60
2023-05-04T16:47:41.729Z,27.70
2023-05-04T16:50:13.371Z,27.90
2023-05-04T16:52:40.514Z,27.90
2023-05-04T16:55:11.271Z,27.90
2023-05-04T16:57:39.198Z,27.70
2023-05-04T17:00:07.553Z,27.70
2023-05-04T17:02:36.069Z,27.80
2023-05-04T17:05:06.646Z,27.80
2023-05-04T17:07:34.224Z,27.60
2023-05-04T17:10:01.522Z,27.30
2023-05-04T17:12:29.161Z,27.00
2023-05-04T17:14:56.344Z,26.80
2023-05-04T17:17:23.456Z,26.80
2023-05-04T17:19:50.652Z,26.70
2023-05-04T17:22:17.642Z,26.60
2023-05-04T17:24:45.696Z,26.60
2023-05-04T17:27:13.282Z,26.50
2023-05-04T17:29:41.276Z,26.30
2023-05-04T17:32:08.497Z,26.10
2023-05-04T17:34:36.504Z,25.90
2023-05-04T17:37:03.759Z,25.70
2023-05-04T17:39:31.781Z,25.80
2023-05-04T17:41:59.320Z,25.80
2023-05-04T17:44:28.190Z,25.90
2023-05-04T17:46:55.189Z,25.70
2023-05-04T17:49:22.128Z,25.60
2023-05-04T17:51:49.423Z,25.50
2023-05-04T17:54:17.260Z,25.40
2023-05-04T17:56:44.366Z,25.30
2023-05-04T17:59:11.534Z,25.20
2023-05-04T18:01:38.778Z,25.20
2023-05-04T18:04:05.930Z,25.10
2023-05-04T18:06:33.064Z,25.00
2023-05-04T18:09:01.539Z,24.90
2023-05-04T18:11:28.613Z,24.80
2023-05-04T18:13:56.608Z,24.60
2023-05-04T18:16:24.985Z,24.40
2023-05-04T18:18:52.577Z,24.20
2023-05-04T18:21:19.768Z,24.00
2023-05-04T18:23:46.982Z,23.80
2023-05-04T18:26:22.674Z,23.60
2023-05-04T18:28:50.069Z,23.40
2023-05-04T18:31:17.481Z,23.20
2023-05-04T18:33:44.636Z,23.10
2023-05-04T18:36:12.067Z,22.90
2023-05-04T18:38:38.990Z,22.80
2023-05-04T18:41:06.106Z,22.70
2023-05-04T18:43:33.240Z,22.60
2023-05-04T18:46:07.368Z,22.50
2023-05-04T18:48:34.566Z,22.30
2023-05-04T18:53:29.799Z,21.80
2023-05-04T18:56:08.066Z,21.70
2023-05-04T18:58:39.049Z,21.40
2023-05-04T19:01:06.598Z,21.20
2023-05-04T19:03:34.078Z,21.10
2023-05-04T19:06:01.330Z,21.00
2023-05-04T19:08:28.385Z,20.90
2023-05-04T19:10:59.118Z,20.80
2023-05-04T19:13:26.276Z,20.70
2023-05-04T19:15:53.431Z,20.50
2023-05-04T19:18:20.513Z,20.50
2023-05-04T19:20:48.488Z,20.50
2023-05-04T19:23:15.997Z,20.30
2023-05-04T19:25:43.256Z,20.30
2023-05-04T19:28:10.315Z,20.20
2023-05-04T19:30:39.994Z,20.20
2023-05-04T19:33:08.535Z,20.10
2023-05-04T19:35:36.040Z,20.00
2023-05-04T19:38:06.150Z,19.90
2023-05-04T19:40:34.046Z,19.90
2023-05-04T19:43:01.347Z,19.70
2023-05-04T19:45:28.671Z,19.70
2023-05-04T19:47:56.064Z,19.60
2023-05-04T19:50:23.367Z,19.50
2023-05-04T19:52:50.687Z,19.40
2023-05-04T19:55:18.109Z,19.40
2023-05-04T19:57:45.367Z,19.40
2023-05-04T20:00:13.483Z,19.30
2023-05-04T20:02:40.955Z,19.20
2023-05-04T20:05:08.412Z,19.20
2023-05-04T20:07:35.720Z,19.00
2023-05-04T20:10:03.162Z,19.00
2023-05-04T20:12:30.493Z,19.00
2023-05-04T20:14:57.725Z,18.90
2023-05-04T20:17:24.761Z,18.90
2023-05-04T20:19:52.385Z,18.80
2023-05-04T20:22:19.783Z,18.70
2023-05-04T20:24:47.620Z,18.60
2023-05-04T20:27:14.759Z,18.50
2023-05-04T20:29:41.789Z,18.40
2023-05-04T20:32:09.307Z,18.30
2023-05-04T20:34:39.252Z,18.30
2023-05-04T20:37:06.585Z,18.30
2023-05-04T20:39:33.664Z,18.30
2023-05-04T20:42:00.975Z,18.20
2023-05-04T20:44:28.217Z,18.10
2023-05-04T20:46:55.290Z,18.10
2023-05-04T20:49:22.348Z,18.10
2023-05-04T20:51:49.496Z,18.00
2023-05-04T20:54:17.179Z,18.10
2023-05-04T20:56:44.495Z,18.00
2023-05-04T20:59:11.673Z,17.90
2023-05-04T21:01:38.869Z,17.90
2023-05-04T21:04:06.055Z,17.80
2023-05-04T21:06:33.259Z,17.70
2023-05-04T21:09:04.460Z,17.60
2023-05-04T21:11:31.625Z,17.50
2023-05-04T21:13:58.821Z,17.50
2023-05-04T21:16:25.927Z,17.40
2023-05-04T21:18:53.277Z,17.30
2023-05-04T21:21:20.929Z,17.20
2023-05-04T21:23:48.141Z,17.10
2023-05-04T21:26:15.915Z,17.00
2023-05-04T21:28:43.095Z,17.20
2023-05-04T21:31:10.503Z,17.10
2023-05-04T21:33:37.705Z,17.00
2023-05-04T21:36:13.027Z,17.00
2023-05-04T21:38:40.221Z,17.00
2023-05-04T21:41:14.992Z,16.90
2023-05-04T21:43:42.656Z,16.80
2023-05-04T21:46:11.602Z,16.70
2023-05-04T21:48:38.893Z,16.70
2023-05-04T21:51:06.551Z,16.70
2023-05-04T21:53:33.732Z,16.60
2023-05-04T21:56:01.963Z,16.60
2023-05-04T21:58:29.098Z,16.50
2023-05-04T22:00:56.432Z,16.40
2023-05-04T22:03:23.810Z,16.40
2023-05-04T22:05:57.792Z,16.40
2023-05-04T22:08:28.705Z,16.30
2023-05-04T22:10:57.734Z,16.20
2023-05-04T22:13:24.972Z,16.20
2023-05-04T22:15:52.676Z,16.20
2023-05-04T22:18:20.689Z,16.10
2023-05-04T22:20:48.017Z,16.10
2023-05-04T22:23:15.468Z,16.00
2023-05-04T22:25:42.659Z,16.00
2023-05-04T22:28:09.821Z,15.90
2023-05-04T22:30:36.920Z,16.00
2023-05-04T22:33:04.290Z,16.00
2023-05-04T22:35:31.620Z,16.00
2023-05-04T22:37:59.020Z,16.00
2023-05-04T22:40:26.435Z,15.90
2023-05-04T22:42:53.822Z,16.10
2023-05-04T22:45:21.139Z,16.10
2023-05-04T22:47:48.416Z,16.00
2023-05-04T22:50:15.660Z,16.00
2023-05-04T22:52:42.864Z,16.00
2023-05-04T22:55:10.162Z,15.90
2023-05-04T22:57:37.317Z,15.90
2023-05-04T23:00:08.317Z,15.80
2023-05-04T23:02:36.344Z,15.80
2023-05-04T23:05:04.041Z,15.70
2023-05-04T23:07:31.256Z,15.70
2023-05-04T23:09:58.384Z,15.70
2023-05-04T23:12:27.148Z,15.60
2023-05-04T23:14:54.773Z,15.60
2023-05-04T23:17:22.250Z,15.70
2023-05-04T23:19:49.480Z,15.60
2023-05-04T23:22:16.588Z,15.60
2023-05-04T23:24:44.071Z,15.50
2023-05-04T23:27:11.558Z,15.50
2023-05-04T23:29:38.958Z,15.50
2023-05-04T23:32:06.541Z,15.50
2023-05-04T23:34:33.751Z,15.50
2023-05-04T23:37:01.143Z,15.50
2023-05-04T23:39:28.275Z,15.50
2023-05-04T23:41:55.467Z,15.40
2023-05-04T23:44:22.855Z,15.40
2023-05-04T23:46:50.047Z,15.40
2023-05-04T23:49:17.226Z,15.30
2023-05-04T23:51:44.493Z,15.30
2023-05-04T23:54:11.824Z,15.20
2023-05-04T23:56:39.124Z,15.20
2023-05-04T23:59:06.174Z,15.20
